Time;durP1;ratioP1;P1;durP2;ratioP2;P2;SDS_P1;SDS_P2;PMS_P1;PMS_P2;Temp;Humidity;BMP_temperature;BMP_pressure;BME280_temperature;BME280_humidity;BME280_pressure;Samples;Min_cycle;Max_cycle;Signal;HPM_P1;HPM_P2
2021/01/13 00:01:30;;;;;;;;;;;;;;;-1.12;69.38;100091.54;1664002;79;10001244;-77
2021/01/13 00:03:58;;;;;;;;;;;;;;;-1.11;69.35;100090.05;1748677;81;20327;-71
2021/01/13 00:06:25;;;;;;;;;;;;;;;-1.11;69.39;100085.31;1750274;80;21203;-70
2021/01/13 00:08:52;;;;;;;;;;;;;;;-1.12;69.42;100074.50;1754989;80;20333;-85
2021/01/13 00:11:20;;;;;;;;;;;;;;;-1.09;69.42;100073.62;1737957;81;20314;-84
2021/01/13 00:13:47;;;;;;;;;;;;;;;-1.10;69.37;100071.20;1743885;80;20294;-70
2021/01/13 00:16:14;;;;;;;;;;;;;;;-1.15;69.42;100064.41;1751504;80;20306;-71
2021/01/13 00:18:44;;;;;;;;;;;;;;;-1.21;69.49;100051.59;1754500;81;21381;-81
2021/01/13 00:21:15;;;;;;;;;;;;;;;-1.24;69.60;100048.05;1739738;80;20327;-84
2021/01/13 00:23:46;;;;;;;;;;;;;;;-1.26;69.73;100044.80;1756124;80;20748;-83
2021/01/13 00:26:23;;;;;;;;;;;;;;;-1.26;69.78;100040.86;1753469;80;20923;-85
2021/01/13 00:28:51;;;;;;;;;;;;;;;-1.25;69.86;100040.69;1753322;80;20343;-83
2021/01/13 00:31:20;;;;;;;;;;;;;;;-1.24;69.95;100033.63;1756550;80;22499;-85
2021/01/13 00:33:48;;;;;;;;;;;;;;;-1.24;70.02;100029.20;1747186;80;20341;-85
2021/01/13 00:36:25;;;;;;;;;;;;;;;-1.25;70.10;100032.83;1740445;80;20340;-86
2021/01/13 00:38:54;;;;;;;;;;;;;;;-1.28;70.09;100027.97;1751303;80;20296;-79
2021/01/13 00:41:22;;;;;;;;;;;;;;;-1.33;70.24;100021.17;1773632;78;20285;-82
2021/01/13 00:43:50;;;;;;;;;;;;;;;-1.39;70.10;100014.08;1782534;79;21167;-82
2021/01/13 00:46:19;;;;;;;;;;;;;;;-1.46;70.05;100010.61;1793414;79;20289;-84
2021/01/13 00:48:46;;;;;;;;;;;;;;;-1.52;69.98;100006.14;1780227;79;20276;-81
2021/01/13 00:51:14;;;;;;;;;;;;;;;-1.58;69.94;100001.19;1786009;79;20272;-81
2021/01/13 00:53:41;;;;;;;;;;;;;;;-1.61;69.95;100008.11;1748355;80;20279;-82
2021/01/13 00:56:10;;;;;;;;;;;;;;;-1.63;69.93;99998.81;1788103;78;21061;-84
2021/01/13 00:58:37;;;;;;;;;;;;;;;-1.70;69.89;99985.17;1784395;79;20282;-83
2021/01/13 01:01:06;;;;;;;;;;;;;;;-1.74;69.78;99995.73;1786457;79;20221;-84
2021/01/13 01:03:34;;;;;;;;;;;;;;;-1.76;69.82;99995.09;1787815;80;20246;-85
2021/01/13 01:06:01;;;;;;;;;;;;;;;-1.79;69.75;100003.33;1808998;79;20252;-86
2021/01/13 01:08:29;;;;;;;;;;;;;;;-1.83;69.86;100013.07;1792051;79;21364;-85
2021/01/13 01:10:57;;;;;;;;;;;;;;;-1.85;69.84;100017.17;1786356;80;21047;-86
2021/01/13 01:13:25;;;;;;;;;;;;;;;-1.85;69.88;100013.24;1791664;80;20226;-84
2021/01/13 01:15:52;;;;;;;;;;;;;;;-1.82;69.87;100014.68;1788583;78;20296;-85
2021/01/13 01:18:19;;;;;;;;;;;;;;;-1.80;69.76;100012.19;1789371;79;20288;-86
2021/01/13 01:20:48;;;;;;;;;;;;;;;-1.77;69.64;100005.77;1790637;79;21373;-83
2021/01/13 01:23:16;;;;;;;;;;;;;;;-1.78;69.45;99998.89;1795988;79;20319;-84
2021/01/13 01:25:45;;;;;;;;;;;;;;;-1.78;69.25;99994.47;1789891;78;20285;-83
2021/01/13 01:28:12;;;;;;;;;;;;;;;-1.82;69.17;99984.58;1771971;78;20301;-82
2021/01/13 01:30:39;;;;;;;;;;;;;;;-1.85;69.02;99975.28;1788118;79;20337;-85
2021/01/13 01:33:07;;;;;;;;;;;;;;;-1.86;69.08;99957.97;1812469;79;21396;-84
2021/01/13 01:35:34;;;;;;;;;;;;;;;-1.85;69.15;99954.85;1782035;80;20277;-85
2021/01/13 01:38:02;;;;;;;;;;;;;;;-1.85;69.08;99951.73;1788295;79;20556;-86
2021/01/13 01:40:30;;;;;;;;;;;;;;;-1.86;69.04;99943.58;1754084;80;20786;-87
2021/01/13 01:42:58;;;;;;;;;;;;;;;-1.86;69.04;99959.28;1665145;80;9999706;-86
2021/01/13 01:45:26;;;;;;;;;;;;;;;-1.91;68.97;99967.72;1793497;79;20133;-87
2021/01/13 01:48:25;;;;;;;;;;;;;;;-1.94;68.92;99964.64;1791388;79;20230;-87
2021/01/13 01:50:59;;;;;;;;;;;;;;;-1.96;68.95;99962.73;1785862;80;20318;-86
2021/01/13 01:53:39;;;;;;;;;;;;;;;-1.97;69.07;99952.77;1791422;79;20938;-87
2021/01/13 01:56:19;;;;;;;;;;;;;;;-1.95;69.02;99939.48;1785868;79;21214;-86
2021/01/13 01:58:48;;;;;;;;;;;;;;;-1.97;68.91;99937.06;1775217;79;20261;-86
2021/01/13 02:01:19;;;;;;;;;;;;;;;-1.99;68.79;99936.94;1788202;80;20218;-86
2021/01/13 02:03:48;;;;;;;;;;;;;;;-2.00;68.83;99937.44;1791724;79;20253;-85
2021/01/13 02:06:17;;;;;;;;;;;;;;;-2.00;68.85;99938.75;1763464;81;20288;-84
2021/01/13 02:08:46;;;;;;;;;;;;;;;-2.00;68.84;99929.59;1776136;78;21354;-86
2021/01/13 02:11:16;;;;;;;;;;;;;;;-2.01;68.81;99918.80;1782650;80;20246;-86
2021/01/13 02:13:47;;;;;;;;;;;;;;;-2.01;68.79;99929.27;1771015;79;20203;-82
2021/01/13 02:16:16;;;;;;;;;;;;;;;-2.00;68.80;99926.98;1781939;79;20210;-84
2021/01/13 02:18:48;;;;;;;;;;;;;;;-2.01;68.72;99921.91;1790337;78;20325;-85
2021/01/13 02:21:17;;;;;;;;;;;;;;;-2.01;68.80;99914.06;1779224;79;22253;-85
2021/01/13 02:23:57;;;;;;;;;;;;;;;-2.01;68.90;99911.45;1777537;79;20253;-86
2021/01/13 02:26:55;;;;;;;;;;;;;;;-1.99;68.87;99916.81;1774505;80;20264;-85
2021/01/13 02:29:27;;;;;;;;;;;;;;;-1.99;68.84;99908.16;1787668;79;20301;-86
2021/01/13 02:32:10;;;;;;;;;;;;;;;-2.01;68.67;99900.98;1790617;79;20258;-85
2021/01/13 02:35:00;;;;;;;;;;;;;;;-2.05;68.68;99887.47;1789241;78;22356;-81
2021/01/13 02:37:36;;;;;;;;;;;;;;;-2.04;68.63;99883.05;1778843;79;20256;-82
2021/01/13 02:40:06;;;;;;;;;;;;;;;-2.07;68.62;99879.02;1791174;79;20227;-80
2021/01/13 02:42:36;;;;;;;;;;;;;;;-2.08;68.60;99865.61;1789184;79;20261;-81
2021/01/13 02:45:11;;;;;;;;;;;;;;;-2.07;68.59;99875.58;1790825;79;20219;-80
2021/01/13 02:48:00;;;;;;;;;;;;;;;-2.07;68.59;99872.95;1788618;80;21048;-80
2021/01/13 02:50:30;;;;;;;;;;;;;;;-2.10;68.60;99873.37;1786273;79;20289;-83
2021/01/13 02:53:16;;;;;;;;;;;;;;;-2.15;68.70;99866.07;1774309;80;20295;-82
2021/01/13 02:55:51;;;;;;;;;;;;;;;-2.18;68.74;99863.33;1786265;79;20226;-82
2021/01/13 02:58:31;;;;;;;;;;;;;;;-2.20;68.74;99865.34;1787940;79;20305;-83
2021/01/13 03:01:07;;;;;;;;;;;;;;;-2.19;68.82;99858.30;1755603;78;21405;-82
2021/01/13 03:03:35;;;;;;;;;;;;;;;-2.15;68.88;99855.61;1779660;78;20262;-83
2021/01/13 03:06:05;;;;;;;;;;;;;;;-2.13;68.92;99862.27;1771909;78;20627;-83
2021/01/13 03:08:50;;;;;;;;;;;;;;;-2.13;68.90;99864.89;1787385;79;20300;-82
2021/01/13 03:11:20;;;;;;;;;;;;;;;-2.11;68.73;99860.76;1781813;78;20281;-82
2021/01/13 03:13:48;;;;;;;;;;;;;;;-2.12;68.63;99868.31;1790769;78;22298;-81
2021/01/13 03:16:16;;;;;;;;;;;;;;;-2.16;68.62;99863.95;1779640;80;20374;-84
2021/01/13 03:19:00;;;;;;;;;;;;;;;-2.18;68.69;99858.09;1772545;80;20266;-83
2021/01/13 03:21:41;;;;;;;;;;;;;;;-2.14;68.83;99854.13;1790501;78;20286;-81
2021/01/13 03:24:15;;;;;;;;;;;;;;;-2.10;68.82;99841.97;1787348;79;20509;-82
2021/01/13 03:26:45;;;;;;;;;;;;;;;-2.11;68.80;99841.14;1787354;79;21350;-81
2021/01/13 03:29:20;;;;;;;;;;;;;;;-2.08;68.83;99834.72;1784469;79;20296;-82
2021/01/13 03:32:14;;;;;;;;;;;;;;;-2.06;68.82;99840.58;1784804;78;20274;-82
2021/01/13 03:34:57;;;;;;;;;;;;;;;-2.02;68.83;99840.50;1788236;80;20709;-84
2021/01/13 03:37:25;;;;;;;;;;;;;;;-2.04;68.68;99840.70;1789959;78;20396;-85
2021/01/13 03:39:53;;;;;;;;;;;;;;;-2.04;68.65;99838.56;1783013;79;22207;-85
2021/01/13 03:42:21;;;;;;;;;;;;;;;-2.07;68.62;99828.00;1754371;80;20232;-84
2021/01/13 03:44:49;;;;;;;;;;;;;;;-2.05;68.59;99823.87;1778664;79;20567;-82
2021/01/13 03:47:32;;;;;;;;;;;;;;;-2.05;68.63;99812.09;1769370;80;20263;-81
2021/01/13 03:50:14;;;;;;;;;;;;;;;-2.09;68.70;99810.36;1784807;78;20286;-81
2021/01/13 03:53:03;;;;;;;;;;;;;;;-2.10;68.67;99807.95;1810899;78;21094;-81
2021/01/13 03:55:32;;;;;;;;;;;;;;;-2.12;68.73;99804.20;1805088;78;20225;-82
2021/01/13 03:58:29;;;;;;;;;;;;;;;-2.14;68.69;99799.66;1801057;79;20493;-84
2021/01/13 04:01:05;;;;;;;;;;;;;;;-2.15;68.72;99798.85;1794588;78;20284;-81
2021/01/13 04:03:37;;;;;;;;;;;;;;;-2.14;68.71;99791.80;1791096;79;20249;-78
2021/01/13 04:06:07;;;;;;;;;;;;;;;-2.15;68.56;99790.20;1767580;79;22191;-78
2021/01/13 04:08:41;;;;;;;;;;;;;;;-2.16;68.56;99788.59;1786320;78;20273;-79
2021/01/13 04:11:13;;;;;;;;;;;;;;;-2.18;68.64;99784.05;1794360;79;20296;-77
2021/01/13 04:13:47;;;;;;;;;;;;;;;-2.19;68.76;99775.90;1801079;78;20270;-78
2021/01/13 04:16:15;;;;;;;;;;;;;;;-2.19;68.89;99768.85;1771159;79;20281;-78
2021/01/13 04:18:47;;;;;;;;;;;;;;;-2.19;68.92;99763.63;1776211;79;22192;-81
2021/01/13 04:21:16;;;;;;;;;;;;;;;-2.21;68.93;99762.99;1802436;78;20474;-82
2021/01/13 04:23:45;;;;;;;;;;;;;;;-2.24;68.93;99768.61;1797791;78;20226;-85
2021/01/13 04:26:13;;;;;;;;;;;;;;;-2.24;69.07;99765.19;1800013;79;21120;-84
2021/01/13 04:28:40;;;;;;;;;;;;;;;-2.26;69.08;99765.39;1789950;79;20647;-86
2021/01/13 04:31:08;;;;;;;;;;;;;;;-2.25;69.15;99763.59;1788329;78;21221;-85
2021/01/13 04:33:36;;;;;;;;;;;;;;;-2.23;69.22;99767.63;1789618;78;20257;-85
2021/01/13 04:36:05;;;;;;;;;;;;;;;-2.22;69.27;99767.92;1803550;78;20216;-84
2021/01/13 04:38:33;;;;;;;;;;;;;;;-2.20;69.23;99764.63;1782305;78;20298;-85
2021/01/13 04:41:07;;;;;;;;;;;;;;;-2.20;69.24;99762.02;1795015;79;20265;-83
2021/01/13 04:43:55;;;;;;;;;;;;;;;-2.18;69.25;99765.73;1791518;79;21356;-82
2021/01/13 04:46:37;;;;;;;;;;;;;;;-2.20;69.17;99759.39;1807548;78;20264;-81
2021/01/13 04:49:10;;;;;;;;;;;;;;;-2.21;69.12;99757.77;1788255;79;20300;-81
2021/01/13 04:51:45;;;;;;;;;;;;;;;-2.24;69.16;99754.22;1798543;78;20586;-81
2021/01/13 04:54:15;;;;;;;;;;;;;;;-2.24;69.21;99753.42;1788733;79;20277;-80
2021/01/13 04:56:49;;;;;;;;;;;;;;;-2.26;69.35;99748.39;1791387;79;21198;-79
2021/01/13 04:59:29;;;;;;;;;;;;;;;-2.23;69.29;99744.09;1810639;77;20543;-80
2021/01/13 05:02:07;;;;;;;;;;;;;;;-2.20;69.32;99745.02;1773173;78;20266;-81
2021/01/13 05:05:03;;;;;;;;;;;;;;;-2.18;69.35;99741.68;1779324;79;20772;-80
2021/01/13 05:07:38;;;;;;;;;;;;;;;-2.15;69.41;99743.11;1781023;79;20277;-82
2021/01/13 05:10:15;;;;;;;;;;;;;;;-2.15;69.51;99741.30;1794493;78;21373;-80
2021/01/13 05:12:47;;;;;;;;;;;;;;;-2.14;69.56;99742.93;1783867;78;20282;-85
2021/01/13 05:15:18;;;;;;;;;;;;;;;-2.12;69.58;99737.48;1796555;78;20587;-82
2021/01/13 05:18:06;;;;;;;;;;;;;;;-2.11;69.50;99733.86;1783269;79;20600;-83
2021/01/13 05:20:42;;;;;;;;;;;;;;;-2.14;69.53;99729.02;1787709;78;20287;-83
2021/01/13 05:23:11;;;;;;;;;;;;;;;-2.13;69.54;99722.30;1788315;79;21101;-83
2021/01/13 05:25:48;;;;;;;;;;;;;;;-2.14;69.54;99721.17;1792835;79;20194;-82
2021/01/13 05:28:22;;;;;;;;;;;;;;;-2.15;69.57;99715.13;1782311;79;20297;-83
2021/01/13 05:30:56;;;;;;;;;;;;;;;-2.13;69.54;99711.83;1782936;79;20292;-84
2021/01/13 05:33:26;;;;;;;;;;;;;;;-2.14;69.63;99710.23;1787567;78;20238;-83
2021/01/13 05:35:55;;;;;;;;;;;;;;;-2.11;69.73;99709.01;1782548;79;22132;-83
2021/01/13 05:38:55;;;;;;;;;;;;;;;-2.10;69.73;99704.61;1789868;78;20284;-82
2021/01/13 05:41:24;;;;;;;;;;;;;;;-2.10;69.74;99705.41;1780050;79;20973;-83
2021/01/13 05:43:52;;;;;;;;;;;;;;;-2.12;69.69;99715.25;1792526;79;20258;-84
2021/01/13 05:46:20;;;;;;;;;;;;;;;-2.13;69.65;99717.58;1788356;78;20215;-80
2021/01/13 05:48:49;;;;;;;;;;;;;;;-2.15;69.70;99720.88;1791419;78;22612;-81
2021/01/13 05:51:27;;;;;;;;;;;;;;;-2.13;69.78;99725.42;1779845;78;20290;-82
2021/01/13 05:53:55;;;;;;;;;;;;;;;-2.13;69.80;99715.76;1789514;78;20508;-82
2021/01/13 05:56:23;;;;;;;;;;;;;;;-2.14;69.71;99707.61;1791281;78;20338;-83
2021/01/13 05:59:01;;;;;;;;;;;;;;;-2.13;69.75;99706.60;1789682;78;20248;-82
2021/01/13 06:01:45;;;;;;;;;;;;;;;-2.10;69.85;99705.41;1791299;78;21396;-82
2021/01/13 06:04:15;;;;;;;;;;;;;;;-2.05;69.83;99706.92;1784800;78;20655;-82
2021/01/13 06:07:06;;;;;;;;;;;;;;;-2.02;69.82;99699.99;1784058;79;20294;-82
2021/01/13 06:09:40;;;;;;;;;;;;;;;-2.03;69.81;99694.47;1787065;79;20835;-82
2021/01/13 06:12:14;;;;;;;;;;;;;;;-2.05;69.78;99695.15;1779299;78;20244;-81
2021/01/13 06:14:43;;;;;;;;;;;;;;;-2.05;69.83;99691.73;1781330;78;20744;-83
2021/01/13 06:17:24;;;;;;;;;;;;;;;-2.07;69.82;99693.72;1783771;78;20726;-82
2021/01/13 06:19:55;;;;;;;;;;;;;;;-2.07;69.87;99697.17;1785105;79;20277;-82
2021/01/13 06:22:29;;;;;;;;;;;;;;;-2.04;69.91;99701.19;1790272;78;20253;-85
2021/01/13 06:24:58;;;;;;;;;;;;;;;-2.03;69.86;99698.89;1781915;79;20269;-85
2021/01/13 06:27:48;;;;;;;;;;;;;;;-2.04;69.84;99694.64;1781911;79;21461;-80
2021/01/13 06:30:19;;;;;;;;;;;;;;;-2.04;69.89;99686.80;1795448;78;20243;-81
2021/01/13 06:33:06;;;;;;;;;;;;;;;-2.02;69.65;99690.03;1794391;78;20282;-80
2021/01/13 06:35:46;;;;;;;;;;;;;;;-2.04;69.72;99684.17;1811201;77;20275;-82
2021/01/13 06:38:29;;;;;;;;;;;;;;;-2.05;69.83;99672.91;1778867;80;20277;-80
2021/01/13 06:41:03;;;;;;;;;;;;;;;-2.02;69.82;99682.19;1811321;77;22231;-80
2021/01/13 06:43:30;;;;;;;;;;;;;;;-2.05;69.76;99675.52;1789083;78;20218;-82
2021/01/13 06:45:57;;;;;;;;;;;;;;;-2.04;69.82;99679.78;1774902;78;20217;-82
2021/01/13 06:48:26;;;;;;;;;;;;;;;-2.03;69.79;99679.27;1802460;78;20274;-83
2021/01/13 06:50:57;;;;;;;;;;;;;;;-1.98;69.81;99676.34;1789337;78;20273;-85
2021/01/13 06:53:32;;;;;;;;;;;;;;;-1.97;69.73;99675.88;1794948;78;22447;-86
2021/01/13 06:56:11;;;;;;;;;;;;;;;-1.94;69.77;99671.52;1793809;78;20277;-82
2021/01/13 06:58:38;;;;;;;;;;;;;;;-1.90;69.68;99669.64;1795237;79;20214;-80
2021/01/13 07:01:06;;;;;;;;;;;;;;;-1.86;69.58;99676.59;1780735;79;20914;-82
2021/01/13 07:03:33;;;;;;;;;;;;;;;-1.84;69.57;99669.37;1789672;79;20288;-85
2021/01/13 07:06:10;;;;;;;;;;;;;;;-1.85;69.48;99662.50;1790974;78;21254;-84
2021/01/13 07:08:37;;;;;;;;;;;;;;;-1.85;69.49;99658.57;1790708;79;20276;-84
2021/01/13 07:11:10;;;;;;;;;;;;;;;-1.82;69.50;99662.61;1793245;79;20258;-85
2021/01/13 07:13:39;;;;;;;;;;;;;;;-1.80;69.50;99665.34;1805669;78;20273;-84
2021/01/13 07:16:06;;;;;;;;;;;;;;;-1.79;69.49;99665.63;1798044;78;20208;-83
2021/01/13 07:18:35;;;;;;;;;;;;;;;-1.77;69.51;99662.84;1795553;79;21986;-83
2021/01/13 07:21:08;;;;;;;;;;;;;;;-1.76;69.52;99665.24;1800573;78;20215;-84
2021/01/13 07:23:42;;;;;;;;;;;;;;;-1.74;69.43;99661.94;1794882;78;20544;-82
2021/01/13 07:26:12;;;;;;;;;;;;;;;-1.76;69.33;99652.16;1794647;78;20297;-83
2021/01/13 07:28:40;;;;;;;;;;;;;;;-1.76;69.27;99648.23;1791689;78;20265;-83
2021/01/13 07:31:08;;;;;;;;;;;;;;;-1.75;69.24;99641.98;1787604;78;21433;-83
2021/01/13 07:33:43;;;;;;;;;;;;;;;-1.75;69.16;99636.73;1793266;79;20285;-84
2021/01/13 07:36:13;;;;;;;;;;;;;;;-1.77;69.14;99634.05;1765999;79;20300;-84
2021/01/13 07:38:43;;;;;;;;;;;;;;;-1.80;69.15;99628.69;1800483;79;20222;-83
2021/01/13 07:41:10;;;;;;;;;;;;;;;-1.78;69.24;99626.66;1782785;78;20244;-83
2021/01/13 07:44:04;;;;;;;;;;;;;;;-1.77;69.30;99620.45;1748883;79;21094;-82
2021/01/13 07:46:35;;;;;;;;;;;;;;;-1.76;69.32;99618.63;1794811;78;20187;-83
2021/01/13 07:49:22;;;;;;;;;;;;;;;-1.71;69.33;99613.58;1790749;79;20296;-84
2021/01/13 07:51:52;;;;;;;;;;;;;;;-1.66;69.34;99608.06;1791177;79;20258;-84
2021/01/13 07:54:32;;;;;;;;;;;;;;;-1.60;69.18;99600.42;1789927;79;20285;-84
2021/01/13 07:57:04;;;;;;;;;;;;;;;-1.57;68.99;99600.02;1792376;79;21227;-83
2021/01/13 07:59:40;;;;;;;;;;;;;;;-1.59;68.92;99591.55;1786009;78;20730;-83
2021/01/13 08:02:46;;;;;;;;;;;;;;;-1.58;68.96;99588.75;1796099;78;20370;-84
2021/01/13 08:05:37;;;;;;;;;;;;;;;-1.55;68.88;99575.73;1800594;78;20274;-84
2021/01/13 08:08:08;;;;;;;;;;;;;;;-1.48;68.81;99576.53;1789848;78;20491;-85
2021/01/13 08:10:37;;;;;;;;;;;;;;;-1.41;68.70;99582.59;1793268;78;21168;-84
2021/01/13 08:13:24;;;;;;;;;;;;;;;-1.39;68.63;99577.94;1791201;79;20270;-83
2021/01/13 08:16:02;;;;;;;;;;;;;;;-1.35;68.51;99573.10;1797476;79;20262;-84
2021/01/13 08:18:50;;;;;;;;;;;;;;;-1.38;68.45;99570.41;1786680;78;20234;-84
2021/01/13 08:21:24;;;;;;;;;;;;;;;-1.36;68.44;99559.71;1801274;79;20543;-85
2021/01/13 08:24:06;;;;;;;;;;;;;;;-1.37;68.31;99554.98;1801367;79;21387;-83
2021/01/13 08:26:31;;;;;;;;;;;;;;;-1.40;68.27;99561.94;1798959;79;20258;-83
2021/01/13 08:29:01;;;;;;;;;;;;;;;-1.44;68.29;99553.68;1786013;79;20580;-84
2021/01/13 08:31:28;;;;;;;;;;;;;;;-1.43;68.33;99547.94;1787848;79;20213;-84
2021/01/13 08:34:07;;;;;;;;;;;;;;;-1.42;68.38;99539.86;1780187;79;20616;-85
2021/01/13 08:36:39;;;;;;;;;;;;;;;-1.40;68.23;99542.29;1782882;78;21391;-85
2021/01/13 08:39:15;;;;;;;;;;;;;;;-1.31;68.28;99537.14;1787951;78;20243;-82
2021/01/13 08:41:44;;;;;;;;;;;;;;;-1.25;68.13;99537.64;1792595;79;20257;-85
2021/01/13 08:44:18;;;;;;;;;;;;;;;-1.16;67.94;99537.41;1802480;78;20611;-85
2021/01/13 08:46:53;;;;;;;;;;;;;;;-1.07;67.89;99533.56;1794987;79;21058;-83
2021/01/13 08:49:23;;;;;;;;;;;;;;;-0.97;67.64;99537.86;1797889;78;21175;-83
2021/01/13 08:52:12;;;;;;;;;;;;;;;-0.95;66.98;99535.84;1798686;78;20274;-83
2021/01/13 08:54:45;;;;;;;;;;;;;;;-0.98;66.63;99531.02;1806700;78;20297;-84
2021/01/13 08:57:28;;;;;;;;;;;;;;;-0.93;66.54;99520.70;1795287;77;20253;-75
2021/01/13 08:59:57;;;;;;;;;;;;;;;-0.92;66.57;99522.81;1774100;79;20238;-75
2021/01/13 09:02:25;;;;;;;;;;;;;;;-0.89;66.02;99527.64;1761959;80;21374;-75
2021/01/13 09:04:54;;;;;;;;;;;;;;;-0.92;65.82;99524.95;1768597;78;20299;-75
2021/01/13 09:07:29;;;;;;;;;;;;;;;-0.94;65.86;99524.34;1756976;80;20539;-75
2021/01/13 09:10:07;;;;;;;;;;;;;;;-0.95;65.93;99520.92;1754265;80;20251;-75
2021/01/13 09:12:41;;;;;;;;;;;;;;;-0.94;65.85;99519.10;1741303;80;20268;-75
2021/01/13 09:15:11;;;;;;;;;;;;;;;-0.97;65.77;99523.45;1746993;80;22377;-75
2021/01/13 09:17:54;;;;;;;;;;;;;;;-0.98;65.91;99516.09;1754665;80;20281;-79
2021/01/13 09:20:26;;;;;;;;;;;;;;;-0.93;65.88;99510.73;1753234;80;20817;-74
2021/01/13 09:23:04;;;;;;;;;;;;;;;-0.89;65.64;99519.27;1758984;80;20307;-75
2021/01/13 09:25:33;;;;;;;;;;;;;;;-0.90;65.72;99516.87;1745490;81;20309;-76
2021/01/13 09:28:02;;;;;;;;;;;;;;;-0.95;65.76;99516.98;1749570;81;22599;-77
2021/01/13 09:30:36;;;;;;;;;;;;;;;-0.97;65.73;99515.58;1772957;79;20666;-75
2021/01/13 09:33:10;;;;;;;;;;;;;;;-0.96;65.78;99524.53;1764469;79;20274;-75
2021/01/13 09:35:43;;;;;;;;;;;;;;;-0.95;65.87;99524.05;1765041;79;20216;-76
2021/01/13 09:38:12;;;;;;;;;;;;;;;-0.96;65.37;99527.66;1760164;79;20284;-74
2021/01/13 09:41:04;;;;;;;;;;;;;;;-0.99;65.31;99516.28;1765808;79;22493;-74
2021/01/13 09:43:41;;;;;;;;;;;;;;;-1.02;65.38;99520.63;1759037;79;20288;-76
2021/01/13 09:46:24;;;;;;;;;;;;;;;-1.07;65.05;99508.66;1759165;79;20656;-76
2021/01/13 09:48:56;;;;;;;;;;;;;;;-1.13;64.89;99506.36;1675509;80;20326;-75
2021/01/13 09:51:25;;;;;;;;;;;;;;;-1.22;64.90;99499.72;1768083;79;21005;-76
2021/01/13 09:53:54;;;;;;;;;;;;;;;-1.26;65.05;99498.02;1734861;81;22675;-76
2021/01/13 09:56:23;;;;;;;;;;;;;;;-1.23;65.13;99486.33;1765514;79;20303;-79
2021/01/13 09:58:52;;;;;;;;;;;;;;;-1.19;65.07;99490.94;1780857;78;20282;-78
2021/01/13 10:01:25;;;;;;;;;;;;;;;-1.15;64.89;99486.60;1751217;80;20298;-79
2021/01/13 10:03:56;;;;;;;;;;;;;;;-1.15;64.81;99478.74;1770969;79;20266;-77
2021/01/13 10:06:32;;;;;;;;;;;;;;;-1.19;64.69;99471.30;1768157;79;21200;-77
2021/01/13 10:09:09;;;;;;;;;;;;;;;-1.21;64.65;99463.36;1762757;79;20298;-77
2021/01/13 10:11:37;;;;;;;;;;;;;;;-1.25;64.46;99465.59;1774599;79;20297;-76
2021/01/13 10:14:06;;;;;;;;;;;;;;;-1.25;64.55;99455.59;1774826;80;20261;-79
2021/01/13 10:16:44;;;;;;;;;;;;;;;-1.24;64.56;99448.05;1764924;79;20303;-75
2021/01/13 10:19:14;;;;;;;;;;;;;;;-1.18;64.64;99451.16;1777146;79;23147;-77
2021/01/13 10:21:44;;;;;;;;;;;;;;;-1.15;64.83;99452.54;1776612;79;20285;-75
2021/01/13 10:24:13;;;;;;;;;;;;;;;-1.13;64.87;99443.47;1779377;79;20305;-76
2021/01/13 10:26:42;;;;;;;;;;;;;;;-1.11;64.96;99436.22;1770408;79;20249;-76
2021/01/13 10:29:13;;;;;;;;;;;;;;;-1.06;65.02;99427.72;1778613;79;20265;-77
2021/01/13 10:31:42;;;;;;;;;;;;;;;-1.06;64.87;99429.83;1774354;79;20355;-76
2021/01/13 10:34:15;;;;;;;;;;;;;;;-1.07;64.87;99427.42;1522386;79;9999868;-77
2021/01/13 10:36:47;;;;;;;;;;;;;;;-1.09;64.79;99420.27;1762041;79;21787;-77
2021/01/13 10:39:20;;;;;;;;;;;;;;;-1.15;64.93;99413.23;1758023;79;21146;-75
2021/01/13 10:41:51;;;;;;;;;;;;;;;-1.16;65.09;99406.39;1759229;79;20282;-77
2021/01/13 10:44:21;;;;;;;;;;;;;;;-1.13;65.35;99398.13;1748076;80;20609;-78
2021/01/13 10:47:07;;;;;;;;;;;;;;;-1.10;65.43;99396.40;1764541;79;20265;-77
2021/01/13 10:49:39;;;;;;;;;;;;;;;-1.12;65.55;99389.23;1773806;79;21646;-76
2021/01/13 10:52:14;;;;;;;;;;;;;;;-1.11;65.70;99380.39;1774288;79;20277;-77
2021/01/13 10:54:48;;;;;;;;;;;;;;;-1.10;65.75;99380.16;1770428;79;20319;-77
2021/01/13 10:57:19;;;;;;;;;;;;;;;-1.08;65.75;99370.80;1749355;79;20298;-77
2021/01/13 10:59:49;;;;;;;;;;;;;;;-1.14;65.51;99376.87;1777275;79;20281;-77
2021/01/13 11:02:16;;;;;;;;;;;;;;;-1.22;65.67;99376.59;1774717;79;21371;-76
2021/01/13 11:04:51;;;;;;;;;;;;;;;-1.26;65.54;99368.86;1679175;79;9999861;-76
2021/01/13 11:07:22;;;;;;;;;;;;;;;-1.30;65.52;99375.53;1751016;80;20260;-76
2021/01/13 11:09:50;;;;;;;;;;;;;;;-1.29;65.69;99364.03;1757709;80;20951;-76
2021/01/13 11:12:22;;;;;;;;;;;;;;;-1.29;65.39;99363.52;1785186;78;20254;-75
2021/01/13 11:14:50;;;;;;;;;;;;;;;-1.33;65.01;99355.79;1784784;78;21440;-77
2021/01/13 11:17:22;;;;;;;;;;;;;;;-1.37;65.01;99350.67;1790343;78;20285;-77
2021/01/13 11:19:55;;;;;;;;;;;;;;;-1.32;65.07;99353.97;1786460;79;20297;-77
2021/01/13 11:22:51;;;;;;;;;;;;;;;-1.27;64.77;99352.84;1775714;79;20343;-76
2021/01/13 11:25:24;;;;;;;;;;;;;;;-1.25;64.70;99349.50;1779055;79;20273;-77
2021/01/13 11:28:05;;;;;;;;;;;;;;;-1.24;64.77;99345.88;1771352;79;21372;-77
2021/01/13 11:30:36;;;;;;;;;;;;;;;-1.23;64.88;99348.28;1771353;79;20616;-77
2021/01/13 11:33:05;;;;;;;;;;;;;;;-1.24;64.76;99337.52;1784085;78;20763;-76
2021/01/13 11:35:34;;;;;;;;;;;;;;;-1.23;64.66;99341.73;1770023;79;20254;-77
2021/01/13 11:38:38;;;;;;;;;;;;;;;-1.23;64.60;99336.48;1762546;79;20574;-76
2021/01/13 11:41:37;;;;;;;;;;;;;;;-1.21;64.49;99334.48;1763171;80;21214;-75
2021/01/13 11:44:10;;;;;;;;;;;;;;;-1.23;64.43;99333.07;1768965;79;20676;-77
2021/01/13 11:46:46;;;;;;;;;;;;;;;-1.27;64.52;99320.11;1775426;79;20253;-75
2021/01/13 11:49:23;;;;;;;;;;;;;;;-1.29;64.64;99320.81;1792359;78;20374;-76
2021/01/13 11:51:52;;;;;;;;;;;;;;;-1.29;64.78;99324.22;1787271;78;20273;-77
2021/01/13 11:54:25;;;;;;;;;;;;;;;-1.27;64.77;99318.28;1788642;78;21359;-75
2021/01/13 11:56:54;;;;;;;;;;;;;;;-1.27;64.68;99320.91;1767745;78;20991;-77
2021/01/13 11:59:28;;;;;;;;;;;;;;;-1.27;64.68;99316.17;1755765;80;20279;-75
2021/01/13 12:01:59;;;;;;;;;;;;;;;-1.27;64.70;99306.49;1756319;80;20391;-77
2021/01/13 12:04:27;;;;;;;;;;;;;;;-1.22;64.57;99316.33;1788253;78;20289;-76
2021/01/13 12:06:59;;;;;;;;;;;;;;;-1.19;64.38;99307.54;1756550;80;21209;-77
2021/01/13 12:09:26;;;;;;;;;;;;;;;-1.17;64.16;99311.78;1761442;80;20594;-77
2021/01/13 12:11:54;;;;;;;;;;;;;;;-1.21;64.02;99298.31;1777975;78;20502;-77
2021/01/13 12:14:21;;;;;;;;;;;;;;;-1.25;63.92;99292.69;1741879;81;20290;-78
2021/01/13 12:17:00;;;;;;;;;;;;;;;-1.31;63.66;99296.15;1766266;79;20264;-76
2021/01/13 12:19:40;;;;;;;;;;;;;;;-1.40;63.78;99293.47;1757431;80;22141;-76
2021/01/13 12:22:07;;;;;;;;;;;;;;;-1.45;63.92;99284.12;1751919;80;20308;-77
2021/01/13 12:24:39;;;;;;;;;;;;;;;-1.45;63.75;99277.57;1632808;80;9999924;-74
2021/01/13 12:27:19;;;;;;;;;;;;;;;-1.44;63.79;99268.72;1761271;80;20660;-75
2021/01/13 12:29:47;;;;;;;;;;;;;;;-1.42;63.67;99272.72;1752949;80;21385;-76
2021/01/13 12:32:14;;;;;;;;;;;;;;;-1.44;63.49;99263.48;1751403;80;20256;-77
2021/01/13 12:34:42;;;;;;;;;;;;;;;-1.48;63.53;99273.58;1756026;80;20284;-77
2021/01/13 12:37:11;;;;;;;;;;;;;;;-1.48;63.52;99274.06;1753675;80;21080;-76
2021/01/13 12:39:42;;;;;;;;;;;;;;;-1.46;63.59;99274.66;1726920;80;20292;-76
2021/01/13 12:42:10;;;;;;;;;;;;;;;-1.44;63.66;99273.95;1752485;80;21436;-75
2021/01/13 12:44:37;;;;;;;;;;;;;;;-1.41;63.63;99266.99;1711671;80;20277;-76
2021/01/13 12:47:09;;;;;;;;;;;;;;;-1.38;63.74;99270.50;1755310;80;20276;-75
2021/01/13 12:49:34;;;;;;;;;;;;;;;-1.34;63.61;99271.68;1757259;80;20295;-76
2021/01/13 12:52:01;;;;;;;;;;;;;;;-1.39;63.60;99264.95;1754175;80;20292;-78
2021/01/13 12:54:28;;;;;;;;;;;;;;;-1.42;63.64;99262.75;1752106;80;21537;-78
2021/01/13 12:56:56;;;;;;;;;;;;;;;-1.45;63.53;99267.92;1754535;80;20628;-77
2021/01/13 12:59:24;;;;;;;;;;;;;;;-1.52;63.67;99252.73;1758893;80;20287;-77
2021/01/13 13:01:51;;;;;;;;;;;;;;;-1.55;63.84;99259.69;1756801;80;20384;-77
2021/01/13 13:04:21;;;;;;;;;;;;;;;-1.59;64.07;99258.52;1754927;80;20319;-78
2021/01/13 13:06:49;;;;;;;;;;;;;;;-1.58;64.28;99256.21;1757645;80;21339;-76
2021/01/13 13:09:17;;;;;;;;;;;;;;;-1.54;64.30;99247.43;1751202;80;20566;-77
2021/01/13 13:11:59;;;;;;;;;;;;;;;-1.55;64.27;99249.22;1750107;80;20494;-77
2021/01/13 13:14:27;;;;;;;;;;;;;;;-1.58;64.35;99253.59;1753446;80;20665;-78
2021/01/13 13:16:54;;;;;;;;;;;;;;;-1.57;64.47;99259.12;1789395;78;20292;-78